sensor_id;sensor_type;location;lat;lon;timestamp;pressure;altitude;pressure_sealevel;temperature;humidity
63819;BME280;49970;54.976;73.248;2023-04-24T00:02:21;99277.97;;;8.07;85.45
63819;BME280;49970;54.976;73.248;2023-04-24T00:04:49;99268.97;;;8.09;85.37
63819;BME280;49970;54.976;73.248;2023-04-24T00:07:21;99266.97;;;8.13;85.28
63819;BME280;49970;54.976;73.248;2023-04-24T00:09:51;99271.00;;;8.06;85.53
63819;BME280;49970;54.976;73.248;2023-04-24T00:12:18;99270.03;;;8.07;85.97
63819;BME280;49970;54.976;73.248;2023-04-24T00:14:44;99261.06;;;8.09;86.78
63819;BME280;49970;54.976;73.248;2023-04-24T00:17:10;99265.28;;;8.12;86.37
63819;BME280;49970;54.976;73.248;2023-04-24T00:19:36;99268.25;;;8.18;86.64
63819;BME280;49970;54.976;73.248;2023-04-24T00:22:03;99271.16;;;8.27;86.24
63819;BME280;49970;54.976;73.248;2023-04-24T00:24:29;99264.66;;;8.31;86.37
63819;BME280;49970;54.976;73.248;2023-04-24T00:26:55;99264.66;;;8.31;85.45
63819;BME280;49970;54.976;73.248;2023-04-24T00:29:21;99257.50;;;8.33;85.57
63819;BME280;49970;54.976;73.248;2023-04-24T00:31:48;99249.56;;;8.33;85.65
63819;BME280;49970;54.976;73.248;2023-04-24T00:34:14;99248.59;;;8.34;85.71
63819;BME280;49970;54.976;73.248;2023-04-24T00:36:40;99245.84;;;8.35;85.26
63819;BME280;49970;54.976;73.248;2023-04-24T00:39:07;99252.81;;;8.36;85.73
63819;BME280;49970;54.976;73.248;2023-04-24T00:41:36;99256.31;;;8.37;85.62
63819;BME280;49970;54.976;73.248;2023-04-24T00:44:07;99272.22;;;8.35;86.06
63819;BME280;49970;54.976;73.248;2023-04-24T00:46:39;99263.28;;;8.38;85.27
63819;BME280;49970;54.976;73.248;2023-04-24T00:49:06;99272.63;;;8.42;85.06
63819;BME280;49970;54.976;73.248;2023-04-24T00:51:37;99277.91;;;8.42;85.29
63819;BME280;49970;54.976;73.248;2023-04-24T00:54:14;99284.00;;;8.42;85.25
63819;BME280;49970;54.976;73.248;2023-04-24T00:56:45;99304.75;;;8.47;85.30
63819;BME280;49970;54.976;73.248;2023-04-24T00:59:22;99301.75;;;8.52;85.05
63819;BME280;49970;54.976;73.248;2023-04-24T01:01:48;99307.50;;;8.57;84.96
63819;BME280;49970;54.976;73.248;2023-04-24T01:04:20;99307.03;;;8.63;85.64
63819;BME280;49970;54.976;73.248;2023-04-24T01:06:48;99305.38;;;8.62;85.46
63819;BME280;49970;54.976;73.248;2023-04-24T01:09:26;99307.41;;;8.58;85.66
63819;BME280;49970;54.976;73.248;2023-04-24T01:11:52;99310.03;;;8.58;85.89
63819;BME280;49970;54.976;73.248;2023-04-24T01:14:19;99315.56;;;8.66;85.79
63819;BME280;49970;54.976;73.248;2023-04-24T01:16:48;99318.53;;;8.73;85.57
63819;BME280;49970;54.976;73.248;2023-04-24T01:19:15;99315.53;;;8.78;85.76
63819;BME280;49970;54.976;73.248;2023-04-24T01:21:50;99318.06;;;8.79;85.65
63819;BME280;49970;54.976;73.248;2023-04-24T01:24:18;99321.16;;;8.84;85.85
63819;BME280;49970;54.976;73.248;2023-04-24T01:26:56;99333.16;;;8.88;85.55
63819;BME280;49970;54.976;73.248;2023-04-24T01:29:22;99332.09;;;8.91;85.64
63819;BME280;49970;54.976;73.248;2023-04-24T01:31:55;99336.53;;;8.90;85.20
63819;BME280;49970;54.976;73.248;2023-04-24T01:34:22;99337.25;;;8.92;85.53
63819;BME280;49970;54.976;73.248;2023-04-24T01:36:48;99346.59;;;8.96;85.41
63819;BME280;49970;54.976;73.248;2023-04-24T01:39:21;99354.41;;;8.98;85.14
63819;BME280;49970;54.976;73.248;2023-04-24T01:41:49;99352.97;;;8.94;85.61
63819;BME280;49970;54.976;73.248;2023-04-24T01:44:18;99347.34;;;8.87;85.71
63819;BME280;49970;54.976;73.248;2023-04-24T01:46:45;99333.69;;;8.82;85.94
63819;BME280;49970;54.976;73.248;2023-04-24T01:49:11;99351.53;;;8.90;86.15
63819;BME280;49970;54.976;73.248;2023-04-24T01:51:38;99346.13;;;8.91;85.35
63819;BME280;49970;54.976;73.248;2023-04-24T01:54:04;99346.00;;;8.82;85.92
63819;BME280;49970;54.976;73.248;2023-04-24T01:56:33;99351.41;;;8.91;85.73
63819;BME280;49970;54.976;73.248;2023-04-24T01:59:11;99358.25;;;8.94;85.85
63819;BME280;49970;54.976;73.248;2023-04-24T02:01:38;99357.88;;;8.98;85.76
63819;BME280;49970;54.976;73.248;2023-04-24T02:04:15;99360.28;;;9.02;85.70
63819;BME280;49970;54.976;73.248;2023-04-24T02:06:42;99360.13;;;9.14;85.73
63819;BME280;49970;54.976;73.248;2023-04-24T02:09:09;99363.34;;;9.29;85.81
63819;BME280;49970;54.976;73.248;2023-04-24T02:11:36;99358.63;;;9.44;85.65
63819;BME280;49970;54.976;73.248;2023-04-24T02:14:07;99360.59;;;9.63;85.58
63819;BME280;49970;54.976;73.248;2023-04-24T02:16:41;99369.41;;;9.84;84.77
63819;BME280;49970;54.976;73.248;2023-04-24T02:19:08;99371.81;;;9.87;84.76
63819;BME280;49970;54.976;73.248;2023-04-24T02:21:35;99382.59;;;9.95;84.39
63819;BME280;49970;54.976;73.248;2023-04-24T02:24:02;99380.78;;;9.96;84.78
63819;BME280;49970;54.976;73.248;2023-04-24T02:26:34;99388.75;;;9.85;85.28
63819;BME280;49970;54.976;73.248;2023-04-24T02:29:11;99388.28;;;9.80;85.20
63819;BME280;49970;54.976;73.248;2023-04-24T02:31:37;99389.75;;;9.72;85.35
63819;BME280;49970;54.976;73.248;2023-04-24T02:34:03;99395.19;;;9.71;85.63
63819;BME280;49970;54.976;73.248;2023-04-24T02:36:31;99399.63;;;9.70;85.59
63819;BME280;49970;54.976;73.248;2023-04-24T02:38:57;99413.09;;;9.67;86.07
63819;BME280;49970;54.976;73.248;2023-04-24T02:41:23;99407.47;;;9.61;86.36
63819;BME280;49970;54.976;73.248;2023-04-24T02:43:49;99408.94;;;9.54;86.15
63819;BME280;49970;54.976;73.248;2023-04-24T02:46:16;99415.91;;;9.55;86.66
63819;BME280;49970;54.976;73.248;2023-04-24T02:48:42;99421.19;;;9.55;87.13
63819;BME280;49970;54.976;73.248;2023-04-24T02:51:13;99433.44;;;9.56;86.66
63819;BME280;49970;54.976;73.248;2023-04-24T02:53:45;99438.03;;;9.54;86.94
63819;BME280;49970;54.976;73.248;2023-04-24T02:56:11;99441.38;;;9.44;87.45
63819;BME280;49970;54.976;73.248;2023-04-24T02:58:38;99439.94;;;9.40;86.79
63819;BME280;49970;54.976;73.248;2023-04-24T03:01:08;99448.16;;;9.37;87.13
63819;BME280;49970;54.976;73.248;2023-04-24T03:11:34;99467.72;;;9.23;88.05
63819;BME280;49970;54.976;73.248;2023-04-24T03:19:26;99473.84;;;9.02;88.21
63819;BME280;49970;54.976;73.248;2023-04-24T03:27:12;99484.06;;;8.84;88.39
63819;BME280;49970;54.976;73.248;2023-04-24T03:31:52;99498.69;;;8.77;88.74
63819;BME280;49970;54.976;73.248;2023-04-24T03:35:23;99505.75;;;8.76;89.09
63819;BME280;49970;54.976;73.248;2023-04-24T03:37:51;99518.38;;;8.84;89.36
63819;BME280;49970;54.976;73.248;2023-04-24T03:40:47;99518.03;;;8.88;88.62
63819;BME280;49970;54.976;73.248;2023-04-24T03:43:48;99520.66;;;8.88;88.82
63819;BME280;49970;54.976;73.248;2023-04-24T03:50:26;99532.91;;;8.78;89.49
63819;BME280;49970;54.976;73.248;2023-04-24T03:54:23;99543.56;;;8.77;89.10
63819;BME280;49970;54.976;73.248;2023-04-24T03:56:56;99550.53;;;8.78;89.57
63819;BME280;49970;54.976;73.248;2023-04-24T03:59:31;99553.50;;;8.73;89.12
63819;BME280;49970;54.976;73.248;2023-04-24T04:02:23;99557.72;;;8.76;89.57
63819;BME280;49970;54.976;73.248;2023-04-24T04:05:04;99552.44;;;8.76;90.04
63819;BME280;49970;54.976;73.248;2023-04-24T04:07:44;99566.50;;;8.76;89.35
63819;BME280;49970;54.976;73.248;2023-04-24T04:10:13;99572.38;;;8.80;90.49
63819;BME280;49970;54.976;73.248;2023-04-24T04:12:43;99580.78;;;8.85;89.67
63819;BME280;49970;54.976;73.248;2023-04-24T04:15:13;99584.19;;;8.87;90.28
63819;BME280;49970;54.976;73.248;2023-04-24T04:17:43;99588.38;;;8.89;90.43
63819;BME280;49970;54.976;73.248;2023-04-24T04:20:14;99586.91;;;8.85;90.04
63819;BME280;49970;54.976;73.248;2023-04-24T04:22:45;99589.34;;;8.88;90.02
63819;BME280;49970;54.976;73.248;2023-04-24T04:25:20;99588.38;;;8.89;89.42
63819;BME280;49970;54.976;73.248;2023-04-24T04:27:51;99598.22;;;8.87;90.02
63819;BME280;49970;54.976;73.248;2023-04-24T04:30:23;99595.22;;;8.92;89.59
63819;BME280;49970;54.976;73.248;2023-04-24T04:32:59;99598.13;;;9.00;90.32
63819;BME280;49970;54.976;73.248;2023-04-24T04:35:28;99605.94;;;9.02;89.46
63819;BME280;49970;54.976;73.248;2023-04-24T04:37:59;99610.72;;;8.96;89.43
63819;BME280;49970;54.976;73.248;2023-04-24T04:40:50;99620.22;;;8.99;90.04
63819;BME280;49970;54.976;73.248;2023-04-24T04:43:33;99606.50;;;8.94;89.05
63819;BME280;49970;54.976;73.248;2023-04-24T04:46:08;99610.97;;;9.05;88.99
63819;BME280;49970;54.976;73.248;2023-04-24T04:49:06;99614.50;;;9.16;89.45
63819;BME280;49970;54.976;73.248;2023-04-24T04:51:38;99623.16;;;9.30;88.66
63819;BME280;49970;54.976;73.248;2023-04-24T04:54:09;99623.28;;;9.39;88.45
63819;BME280;49970;54.976;73.248;2023-04-24T04:56:40;99630.75;;;9.45;88.57
63819;BME280;49970;54.976;73.248;2023-04-24T04:59:11;99635.34;;;9.55;87.66
63819;BME280;49970;54.976;73.248;2023-04-24T05:01:51;99648.31;;;9.58;88.12
63819;BME280;49970;54.976;73.248;2023-04-24T05:04:22;99652.53;;;9.49;87.43
63819;BME280;49970;54.976;73.248;2023-04-24T05:07:02;99662.34;;;9.47;87.59
63819;BME280;49970;54.976;73.248;2023-04-24T05:09:35;99665.34;;;9.42;86.96
63819;BME280;49970;54.976;73.248;2023-04-24T05:12:07;99673.63;;;9.38;86.80
63819;BME280;49970;54.976;73.248;2023-04-24T05:14:50;99682.19;;;9.41;87.09
63819;BME280;49970;54.976;73.248;2023-04-24T05:17:29;99699.75;;;9.54;86.56
63819;BME280;49970;54.976;73.248;2023-04-24T05:20:01;99701.47;;;9.66;85.77
63819;BME280;49970;54.976;73.248;2023-04-24T05:22:31;99706.97;;;9.63;85.79
63819;BME280;49970;54.976;73.248;2023-04-24T05:25:02;99707.69;;;9.65;85.80
63819;BME280;49970;54.976;73.248;2023-04-24T05:27:43;99711.41;;;9.73;85.58
63819;BME280;49970;54.976;73.248;2023-04-24T05:30:29;99720.94;;;9.76;84.68
63819;BME280;49970;54.976;73.248;2023-04-24T05:32:58;99718.31;;;9.87;85.12
63819;BME280;49970;54.976;73.248;2023-04-24T05:35:28;99722.16;;;10.06;83.57
63819;BME280;49970;54.976;73.248;2023-04-24T05:37:58;99725.78;;;10.27;83.99
63819;BME280;49970;54.976;73.248;2023-04-24T05:40:39;99729.38;;;10.48;83.43
63819;BME280;49970;54.976;73.248;2023-04-24T05:43:09;99731.53;;;10.66;82.40
63819;BME280;49970;54.976;73.248;2023-04-24T05:45:38;99729.81;;;10.76;82.35
63819;BME280;49970;54.976;73.248;2023-04-24T05:48:08;99741.47;;;10.85;81.88
63819;BME280;49970;54.976;73.248;2023-04-24T05:50:36;99746.13;;;10.92;81.77
63819;BME280;49970;54.976;73.248;2023-04-24T05:53:06;99756.13;;;11.00;81.49
63819;BME280;49970;54.976;73.248;2023-04-24T05:55:37;99763.94;;;11.02;80.51
63819;BME280;49970;54.976;73.248;2023-04-24T05:58:06;99772.03;;;11.00;79.73
63819;BME280;49970;54.976;73.248;2023-04-24T06:00:39;99768.63;;;10.98;79.86
63819;BME280;49970;54.976;73.248;2023-04-24T06:03:14;99774.88;;;11.08;79.30
63819;BME280;49970;54.976;73.248;2023-04-24T06:05:44;99772.38;;;11.28;78.76
63819;BME280;49970;54.976;73.248;2023-04-24T06:08:16;99780.66;;;11.45;77.77
63819;BME280;49970;54.976;73.248;2023-04-24T06:10:52;99776.94;;;11.58;77.08
63819;BME280;49970;54.976;73.248;2023-04-24T06:13:38;99788.47;;;11.68;76.49
63819;BME280;49970;54.976;73.248;2023-04-24T06:16:22;99780.66;;;11.66;76.47
63819;BME280;49970;54.976;73.248;2023-04-24T06:19:05;99782.16;;;11.80;76.70
63819;BME280;49970;54.976;73.248;2023-04-24T06:21:31;99796.81;;;11.95;76.34
63819;BME280;49970;54.976;73.248;2023-04-24T06:24:07;99800.94;;;11.88;75.70
63819;BME280;49970;54.976;73.248;2023-04-24T06:26:33;99807.84;;;11.80;76.01
63819;BME280;49970;54.976;73.248;2023-04-24T06:29:00;99804.81;;;11.84;76.08
63819;BME280;49970;54.976;73.248;2023-04-24T06:31:31;99813.03;;;12.02;75.12
63819;BME280;49970;54.976;73.248;2023-04-24T06:34:01;99806.47;;;12.27;73.25
63819;BME280;49970;54.976;73.248;2023-04-24T06:36:32;99807.41;;;12.47;72.21
63819;BME280;49970;54.976;73.248;2023-04-24T06:39:00;99823.13;;;12.60;71.54
63819;BME280;49970;54.976;73.248;2023-04-24T06:41:26;99806.19;;;12.61;71.26
63819;BME280;49970;54.976;73.248;2023-04-24T06:43:52;99807.44;;;12.57;70.84
63819;BME280;49970;54.976;73.248;2023-04-24T06:46:19;99816.63;;;12.43;69.89
63819;BME280;49970;54.976;73.248;2023-04-24T06:48:53;99827.69;;;12.48;70.10
63819;BME280;49970;54.976;73.248;2023-04-24T06:51:26;99830.59;;;12.45;70.15
63819;BME280;49970;54.976;73.248;2023-04-24T06:53:58;99809.03;;;12.38;70.34
63819;BME280;49970;54.976;73.248;2023-04-24T06:56:55;99825.63;;;12.61;69.72
63819;BME280;49970;54.976;73.248;2023-04-24T07:00:50;99835.16;;;12.64;69.61
63819;BME280;49970;54.976;73.248;2023-04-24T07:05:06;99851.50;;;12.59;68.85
63819;BME280;49970;54.976;73.248;2023-04-24T07:08:17;99866.03;;;12.55;69.05
63819;BME280;49970;54.976;73.248;2023-04-24T07:10:44;99875.75;;;12.45;68.82
63819;BME280;49970;54.976;73.248;2023-04-24T07:13:20;99870.53;;;12.34;69.14
63819;BME280;49970;54.976;73.248;2023-04-24T07:15:47;99876.28;;;12.18;69.20
63819;BME280;49970;54.976;73.248;2023-04-24T07:18:16;99899.66;;;12.03;69.96
63819;BME280;49970;54.976;73.248;2023-04-24T07:20:42;99900.44;;;11.94;70.30
63819;BME280;49970;54.976;73.248;2023-04-24T07:23:09;99884.19;;;11.87;70.65
63819;BME280;49970;54.976;73.248;2023-04-24T07:25:35;99918.44;;;12.11;70.89
63819;BME280;49970;54.976;73.248;2023-04-24T07:28:01;99904.97;;;12.03;70.56
63819;BME280;49970;54.976;73.248;2023-04-24T07:30:28;99930.59;;;11.93;71.09
63819;BME280;49970;54.976;73.248;2023-04-24T07:33:08;99916.03;;;11.87;71.08
63819;BME280;49970;54.976;73.248;2023-04-24T07:35:37;99924.09;;;11.86;71.04
63819;BME280;49970;54.976;73.248;2023-04-24T07:38:03;99940.91;;;11.75;71.38
63819;BME280;49970;54.976;73.248;2023-04-24T07:40:29;99943.31;;;11.67;71.66
63819;BME280;49970;54.976;73.248;2023-04-24T07:42:56;99945.16;;;11.55;72.27
63819;BME280;49970;54.976;73.248;2023-04-24T07:45:22;99964.47;;;11.46;72.90
63819;BME280;49970;54.976;73.248;2023-04-24T07:47:55;99966.53;;;11.42;73.25
63819;BME280;49970;54.976;73.248;2023-04-24T07:50:21;99969.19;;;11.31;74.00
63819;BME280;49970;54.976;73.248;2023-04-24T07:52:48;99986.78;;;11.21;73.99
63819;BME280;49970;54.976;73.248;2023-04-24T07:55:14;99981.34;;;11.11;74.25
63819;BME280;49970;54.976;73.248;2023-04-24T07:58:00;99988.22;;;11.03;74.12
63819;BME280;49970;54.976;73.248;2023-04-24T08:00:26;99995.22;;;11.04;74.19
63819;BME280;49970;54.976;73.248;2023-04-24T08:02:53;99989.94;;;11.04;74.26
63819;BME280;49970;54.976;73.248;2023-04-24T08:05:19;100003.41;;;11.01;73.82
63819;BME280;49970;54.976;73.248;2023-04-24T08:07:46;100012.91;;;11.03;74.04
63819;BME280;49970;54.976;73.248;2023-04-24T08:10:14;100010.00;;;10.95;74.05
63819;BME280;49970;54.976;73.248;2023-04-24T08:12:41;100017.25;;;10.93;74.51
63819;BME280;49970;54.976;73.248;2023-04-24T08:15:17;100023.53;;;10.92;74.43
63819;BME280;49970;54.976;73.248;2023-04-24T08:17:44;100029.19;;;10.87;75.28
63819;BME280;49970;54.976;73.248;2023-04-24T08:20:15;100047.22;;;10.82;74.94
63819;BME280;49970;54.976;73.248;2023-04-24T08:22:45;100053.22;;;10.73;74.97
63819;BME280;49970;54.976;73.248;2023-04-24T08:25:13;100049.81;;;10.60;75.10
63819;BME280;49970;54.976;73.248;2023-04-24T08:27:39;100062.66;;;10.53;75.78
63819;BME280;49970;54.976;73.248;2023-04-24T08:30:11;100065.84;;;10.34;75.52
63819;BME280;49970;54.976;73.248;2023-04-24T08:32:37;100068.72;;;10.31;75.71
63819;BME280;49970;54.976;73.248;2023-04-24T08:35:04;100073.38;;;10.28;75.17
63819;BME280;49970;54.976;73.248;2023-04-24T08:37:30;100083.63;;;10.32;75.54
63819;BME280;49970;54.976;73.248;2023-04-24T08:39:56;100084.38;;;10.34;75.41
63819;BME280;49970;54.976;73.248;2023-04-24T08:42:23;100099.50;;;10.32;75.66
63819;BME280;49970;54.976;73.248;2023-04-24T08:44:50;100102.50;;;10.28;75.96
63819;BME280;49970;54.976;73.248;2023-04-24T08:47:16;100091.50;;;10.21;75.74
63819;BME280;49970;54.976;73.248;2023-04-24T08:49:53;100121.16;;;10.13;75.52
63819;BME280;49970;54.976;73.248;2023-04-24T08:52:20;100114.63;;;10.06;75.38
63819;BME280;49970;54.976;73.248;2023-04-24T08:54:53;100113.16;;;10.02;74.51
63819;BME280;49970;54.976;73.248;2023-04-24T08:57:20;100124.34;;;10.06;74.71
63819;BME280;49970;54.976;73.248;2023-04-24T08:59:47;100123.81;;;10.13;73.68
63819;BME280;49970;54.976;73.248;2023-04-24T09:02:25;100118.53;;;10.13;74.19
63819;BME280;49970;54.976;73.248;2023-04-24T09:04:53;100129.28;;;10.23;73.65
63819;BME280;49970;54.976;73.248;2023-04-24T09:07:31;100136.50;;;10.21;72.65
63819;BME280;49970;54.976;73.248;2023-04-24T09:09:59;100134.06;;;10.18;72.52
63819;BME280;49970;54.976;73.248;2023-04-24T09:12:27;100142.19;;;10.28;71.52
63819;BME280;49970;54.976;73.248;2023-04-24T09:14:54;100157.25;;;10.27;68.96
63819;BME280;49970;54.976;73.248;2023-04-24T09:17:20;100152.91;;;10.26;66.93
63819;BME280;49970;54.976;73.248;2023-04-24T09:22:25;100159.63;;;10.43;64.83
63819;BME280;49970;54.976;73.248;2023-04-24T09:25:13;100158.34;;;10.48;63.79
63819;BME280;49970;54.976;73.248;2023-04-24T09:27:43;100153.50;;;10.66;64.02
63819;BME280;49970;54.976;73.248;2023-04-24T09:30:11;100172.31;;;10.75;62.38
63819;BME280;49970;54.976;73.248;2023-04-24T09:32:37;100170.75;;;10.72;61.21
63819;BME280;49970;54.976;73.248;2023-04-24T09:35:12;100161.38;;;10.79;61.25
63819;BME280;49970;54.976;73.248;2023-04-24T09:37:44;100171.28;;;10.88;60.34
63819;BME280;49970;54.976;73.248;2023-04-24T09:40:17;100170.59;;;10.97;60.27
63819;BME280;49970;54.976;73.248;2023-04-24T09:42:56;100176.75;;;10.98;59.55
63819;BME280;49970;54.976;73.248;2023-04-24T09:45:35;100179.38;;;10.98;58.32
63819;BME280;49970;54.976;73.248;2023-04-24T09:48:10;100179.25;;;10.88;57.94
63819;BME280;49970;54.976;73.248;2023-04-24T09:50:36;100186.22;;;10.89;58.25
63819;BME280;49970;54.976;73.248;2023-04-24T09:53:04;100202.88;;;10.91;58.44
63819;BME280;49970;54.976;73.248;2023-04-24T09:55:45;100176.97;;;10.95;58.52
63819;BME280;49970;54.976;73.248;2023-04-24T09:58:13;100190.00;;;10.98;58.14
63819;BME280;49970;54.976;73.248;2023-04-24T10:00:40;100189.38;;;10.94;57.62
63819;BME280;49970;54.976;73.248;2023-04-24T10:03:07;100193.59;;;10.97;57.65
63819;BME280;49970;54.976;73.248;2023-04-24T10:05:37;100207.06;;;10.94;55.85
63819;BME280;49970;54.976;73.248;2023-04-24T10:08:10;100193.34;;;10.89;55.44
63819;BME280;49970;54.976;73.248;2023-04-24T10:10:42;100206.50;;;11.02;54.44
63819;BME280;49970;54.976;73.248;2023-04-24T10:13:10;100193.66;;;11.08;54.16
63819;BME280;49970;54.976;73.248;2023-04-24T10:15:37;100203.16;;;11.11;53.62
63819;BME280;49970;54.976;73.248;2023-04-24T10:18:05;100207.06;;;11.18;53.52
63819;BME280;49970;54.976;73.248;2023-04-24T10:20:33;100206.75;;;11.34;53.56
63819;BME280;49970;54.976;73.248;2023-04-24T10:23:00;100206.41;;;11.38;48.50
63819;BME280;49970;54.976;73.248;2023-04-24T10:25:31;100205.91;;;11.44;47.40
63819;BME280;49970;54.976;73.248;2023-04-24T10:27:58;100214.84;;;11.43;46.26
63819;BME280;49970;54.976;73.248;2023-04-24T10:30:33;100233.41;;;11.43;45.88
63819;BME280;49970;54.976;73.248;2023-04-24T10:33:04;100235.56;;;11.38;44.99
63819;BME280;49970;54.976;73.248;2023-04-24T10:35:44;100238.19;;;11.27;43.76
63819;BME280;49970;54.976;73.248;2023-04-24T10:38:33;100243.13;;;11.20;44.24
63819;BME280;49970;54.976;73.248;2023-04-24T10:46:20;100242.16;;;11.21;44.60
63819;BME280;49970;54.976;73.248;2023-04-24T10:50:11;100252.75;;;11.21;45.40
63819;BME280;49970;54.976;73.248;2023-04-24T10:54:15;100260.47;;;11.25;45.67
63819;BME280;49970;54.976;73.248;2023-04-24T11:01:30;100272.22;;;11.33;46.09
63819;BME280;49970;54.976;73.248;2023-04-24T11:05:21;100265.72;;;11.37;45.57
63819;BME280;49970;54.976;73.248;2023-04-24T11:09:36;100279.19;;;11.34;44.36
63819;BME280;49970;54.976;73.248;2023-04-24T11:13:31;100289.06;;;11.32;44.93
63819;BME280;49970;54.976;73.248;2023-04-24T11:17:37;100283.19;;;11.40;44.07
63819;BME280;49970;54.976;73.248;2023-04-24T11:21:12;100300.91;;;11.39;43.61
63819;BME280;49970;54.976;73.248;2023-04-24T11:28:23;100316.31;;;11.34;39.73
63819;BME280;49970;54.976;73.248;2023-04-24T11:39:52;100332.22;;;11.10;39.19
63819;BME280;49970;54.976;73.248;2023-04-24T11:43:48;100330.41;;;11.11;40.00
63819;BME280;49970;54.976;73.248;2023-04-24T11:47:39;100335.09;;;11.07;39.96
63819;BME280;49970;54.976;73.248;2023-04-24T11:51:30;100349.22;;;11.08;40.61
63819;BME280;49970;54.976;73.248;2023-04-24T11:59:09;100370.28;;;11.09;38.28
63819;BME280;49970;54.976;73.248;2023-04-24T12:03:08;100377.66;;;10.93;36.44
63819;BME280;49970;54.976;73.248;2023-04-24T12:07:04;100389.63;;;10.86;37.49
63819;BME280;49970;54.976;73.248;2023-04-24T12:11:20;100392.63;;;10.81;36.59
63819;BME280;49970;54.976;73.248;2023-04-24T12:15:18;100395.78;;;10.73;36.78
63819;BME280;49970;54.976;73.248;2023-04-24T12:19:08;100395.41;;;10.67;36.37
63819;BME280;49970;54.976;73.248;2023-04-24T12:23:08;100408.34;;;10.59;34.32
63819;BME280;49970;54.976;73.248;2023-04-24T12:27:04;100413.00;;;10.55;35.17
63819;BME280;49970;54.976;73.248;2023-04-24T12:31:20;100420.09;;;10.55;35.38
63819;BME280;49970;54.976;73.248;2023-04-24T12:35:11;100437.34;;;10.47;37.49
63819;BME280;49970;54.976;73.248;2023-04-24T12:39:02;100440.50;;;10.40;37.84
63819;BME280;49970;54.976;73.248;2023-04-24T12:46:42;100452.31;;;10.09;38.38
63819;BME280;49970;54.976;73.248;2023-04-24T13:15:50;100501.41;;;9.17;39.15
63819;BME280;49970;54.976;73.248;2023-04-24T13:18:16;100513.94;;;9.14;38.92
63819;BME280;49970;54.976;73.248;2023-04-24T13:20:48;100512.53;;;9.08;39.20
63819;BME280;49970;54.976;73.248;2023-04-24T13:23:14;100532.25;;;9.03;39.21
63819;BME280;49970;54.976;73.248;2023-04-24T13:25:41;100530.00;;;8.96;39.39
63819;BME280;49970;54.976;73.248;2023-04-24T13:28:08;100539.59;;;8.97;39.83
63819;BME280;49970;54.976;73.248;2023-04-24T13:30:44;100546.22;;;8.90;39.59
63819;BME280;49970;54.976;73.248;2023-04-24T13:33:10;100553.75;;;8.82;39.64
63819;BME280;49970;54.976;73.248;2023-04-24T13:35:37;100567.22;;;8.78;39.73
63819;BME280;49970;54.976;73.248;2023-04-24T13:38:03;100569.38;;;8.71;39.12
63819;BME280;49970;54.976;73.248;2023-04-24T13:40:41;100569.66;;;8.66;39.34
63819;BME280;49970;54.976;73.248;2023-04-24T13:43:07;100579.72;;;8.60;38.48
63819;BME280;49970;54.976;73.248;2023-04-24T13:45:35;100592.44;;;8.53;39.13
63819;BME280;49970;54.976;73.248;2023-04-24T13:48:01;100600.63;;;8.48;38.93
63819;BME280;49970;54.976;73.248;2023-04-24T13:50:28;100607.94;;;8.43;39.52
63819;BME280;49970;54.976;73.248;2023-04-24T13:52:55;100609.16;;;8.38;39.79
63819;BME280;49970;54.976;73.248;2023-04-24T13:55:22;100615.41;;;8.35;39.97
63819;BME280;49970;54.976;73.248;2023-04-24T13:57:49;100627.19;;;8.30;40.13
63819;BME280;49970;54.976;73.248;2023-04-24T14:00:15;100632.63;;;8.27;40.37
63819;BME280;49970;54.976;73.248;2023-04-24T14:02:42;100633.00;;;8.20;40.31
63819;BME280;49970;54.976;73.248;2023-04-24T14:05:08;100646.44;;;8.16;39.96
63819;BME280;49970;54.976;73.248;2023-04-24T14:07:37;100651.97;;;8.11;41.05
63819;BME280;49970;54.976;73.248;2023-04-24T14:10:08;100659.47;;;8.03;40.97
63819;BME280;49970;54.976;73.248;2023-04-24T14:12:35;100674.59;;;7.99;41.03
63819;BME280;49970;54.976;73.248;2023-04-24T14:15:01;100658.66;;;7.85;40.73
63819;BME280;49970;54.976;73.248;2023-04-24T14:17:28;100671.78;;;7.87;41.18
63819;BME280;49970;54.976;73.248;2023-04-24T14:19:54;100682.75;;;7.79;41.58
63819;BME280;49970;54.976;73.248;2023-04-24T14:22:22;100685.63;;;7.74;41.48
63819;BME280;49970;54.976;73.248;2023-04-24T14:24:54;100691.19;;;7.68;41.47
63819;BME280;49970;54.976;73.248;2023-04-24T14:27:20;100708.91;;;7.66;41.72
63819;BME280;49970;54.976;73.248;2023-04-24T14:29:46;100703.94;;;7.60;41.63
63819;BME280;49970;54.976;73.248;2023-04-24T14:32:13;100703.41;;;7.54;41.70
63819;BME280;49970;54.976;73.248;2023-04-24T14:34:41;100722.13;;;7.49;41.50
63819;BME280;49970;54.976;73.248;2023-04-24T14:37:07;100724.91;;;7.46;41.72
63819;BME280;49970;54.976;73.248;2023-04-24T14:39:45;100720.97;;;7.37;41.34
63819;BME280;49970;54.976;73.248;2023-04-24T14:42:11;100747.59;;;7.31;41.39
63819;BME280;49970;54.976;73.248;2023-04-24T14:44:37;100748.03;;;7.23;41.48
63819;BME280;49970;54.976;73.248;2023-04-24T14:47:03;100745.59;;;7.19;41.68
63819;BME280;49970;54.976;73.248;2023-04-24T14:49:30;100760.72;;;7.15;41.58
63819;BME280;49970;54.976;73.248;2023-04-24T14:51:56;100755.88;;;7.06;41.92
63819;BME280;49970;54.976;73.248;2023-04-24T14:54:22;100768.38;;;7.03;42.03
63819;BME280;49970;54.976;73.248;2023-04-24T14:56:54;100773.94;;;6.96;41.98
63819;BME280;49970;54.976;73.248;2023-04-24T14:59:27;100783.97;;;6.88;42.29
63819;BME280;49970;54.976;73.248;2023-04-24T15:01:54;100785.97;;;6.83;41.95
63819;BME280;49970;54.976;73.248;2023-04-24T15:04:24;100791.53;;;6.77;42.12
63819;BME280;49970;54.976;73.248;2023-04-24T15:06:56;100800.56;;;6.71;42.23
63819;BME280;49970;54.976;73.248;2023-04-24T15:09:23;100802.44;;;6.69;42.33
63819;BME280;49970;54.976;73.248;2023-04-24T15:12:00;100804.41;;;6.64;42.59